sensor_id;sensor_type;location;lat;lon;timestamp;pressure;altitude;pressure_sealevel;temperature;humidity
60437;BME280;46289;51.992;4.498;2022-10-16T00:02:01;101016.31;;;13.32;100.00
60437;BME280;46289;51.992;4.498;2022-10-16T00:04:31;101030.34;;;13.31;100.00
60437;BME280;46289;51.992;4.498;2022-10-16T00:07:03;101028.63;;;13.33;100.00
60437;BME280;46289;51.992;4.498;2022-10-16T00:09:33;101024.19;;;13.27;100.00
60437;BME280;46289;51.992;4.498;2022-10-16T00:12:03;101026.84;;;13.32;100.00
60437;BME280;46289;51.992;4.498;2022-10-16T00:14:33;101011.03;;;13.29;100.00
60437;BME280;46289;51.992;4.498;2022-10-16T00:17:02;101011.91;;;13.31;100.00
60437;BME280;46289;51.992;4.498;2022-10-16T00:19:32;101015.47;;;13.37;100.00
60437;BME280;46289;51.992;4.498;2022-10-16T00:22:04;101027.75;;;13.35;100.00
60437;BME280;46289;51.992;4.498;2022-10-16T00:24:34;101020.72;;;13.37;100.00
60437;BME280;46289;51.992;4.498;2022-10-16T00:27:03;101019.00;;;13.39;100.00
60437;BME280;46289;51.992;4.498;2022-10-16T00:29:33;101015.50;;;13.45;100.00
60437;BME280;46289;51.992;4.498;2022-10-16T00:32:03;101012.00;;;13.54;100.00
60437;BME280;46289;51.992;4.498;2022-10-16T00:34:33;101016.38;;;13.53;100.00
60437;BME280;46289;51.992;4.498;2022-10-16T00:37:05;101012.00;;;13.54;100.00
60437;BME280;46289;51.992;4.498;2022-10-16T00:39:35;101013.75;;;13.55;100.00
60437;BME280;46289;51.992;4.498;2022-10-16T00:42:05;101004.09;;;13.60;100.00
60437;BME280;46289;51.992;4.498;2022-10-16T00:44:48;101007.63;;;13.60;100.00
60437;BME280;46289;51.992;4.498;2022-10-16T00:47:24;101006.72;;;13.54;100.00
60437;BME280;46289;51.992;4.498;2022-10-16T00:49:58;101008.47;;;13.53;100.00
60437;BME280;46289;51.992;4.498;2022-10-16T00:52:31;101000.59;;;13.50;100.00
60437;BME280;46289;51.992;4.498;2022-10-16T00:55:02;101007.59;;;13.48;100.00
60437;BME280;46289;51.992;4.498;2022-10-16T00:57:32;101014.59;;;13.40;100.00
60437;BME280;46289;51.992;4.498;2022-10-16T01:00:07;101007.56;;;13.34;100.00
60437;BME280;46289;51.992;4.498;2022-10-16T01:02:38;101014.53;;;13.28;100.00
60437;BME280;46289;51.992;4.498;2022-10-16T01:05:08;101025.03;;;13.19;100.00
60437;BME280;46289;51.992;4.498;2022-10-16T01:07:47;101031.97;;;13.14;100.00
60437;BME280;46289;51.992;4.498;2022-10-16T01:10:27;101030.19;;;13.06;100.00
60437;BME280;46289;51.992;4.498;2022-10-16T01:13:04;101031.91;;;13.03;100.00
60437;BME280;46289;51.992;4.498;2022-10-16T01:15:38;101018.72;;;12.97;100.00
60437;BME280;46289;51.992;4.498;2022-10-16T01:18:14;101019.56;;;12.94;100.00
60437;BME280;46289;51.992;4.498;2022-10-16T01:20:47;101026.56;;;12.91;100.00
60437;BME280;46289;51.992;4.498;2022-10-16T01:23:29;101036.22;;;12.89;100.00
60437;BME280;46289;51.992;4.498;2022-10-16T01:26:15;101025.66;;;12.86;100.00
60437;BME280;46289;51.992;4.498;2022-10-16T01:28:55;101029.13;;;12.78;100.00
60437;BME280;46289;51.992;4.498;2022-10-16T01:31:30;101030.84;;;12.73;100.00
60437;BME280;46289;51.992;4.498;2022-10-16T01:34:05;101033.41;;;12.66;100.00
60437;BME280;46289;51.992;4.498;2022-10-16T01:36:38;101028.09;;;12.58;100.00
60437;BME280;46289;51.992;4.498;2022-10-16T01:39:10;101037.72;;;12.56;100.00
60437;BME280;46289;51.992;4.498;2022-10-16T01:41:43;101041.19;;;12.52;100.00
60437;BME280;46289;51.992;4.498;2022-10-16T01:44:19;101042.03;;;12.48;100.00
60437;BME280;46289;51.992;4.498;2022-10-16T01:46:52;101040.28;;;12.44;100.00
60437;BME280;46289;51.992;4.498;2022-10-16T01:49:25;101042.03;;;12.48;100.00
60437;BME280;46289;51.992;4.498;2022-10-16T01:51:57;101037.63;;;12.41;100.00
60437;BME280;46289;51.992;4.498;2022-10-16T01:54:31;101035.88;;;12.43;100.00
60437;BME280;46289;51.992;4.498;2022-10-16T01:57:04;101042.91;;;12.44;100.00
60437;BME280;46289;51.992;4.498;2022-10-16T01:59:42;101045.53;;;12.44;100.00
60437;BME280;46289;51.992;4.498;2022-10-16T02:02:15;101042.88;;;12.41;100.00
60437;BME280;46289;51.992;4.498;2022-10-16T02:04:49;101049.91;;;12.43;100.00
60437;BME280;46289;51.992;4.498;2022-10-16T02:07:22;101049.06;;;12.46;100.00
60437;BME280;46289;51.992;4.498;2022-10-16T02:09:52;101053.41;;;12.42;100.00
60437;BME280;46289;51.992;4.498;2022-10-16T02:12:24;101050.81;;;12.52;100.00
60437;BME280;46289;51.992;4.498;2022-10-16T02:14:59;101047.31;;;12.47;100.00
60437;BME280;46289;51.992;4.498;2022-10-16T02:17:29;101057.81;;;12.45;100.00
60437;BME280;46289;51.992;4.498;2022-10-16T02:19:59;101063.97;;;12.47;100.00
60437;BME280;46289;51.992;4.498;2022-10-16T02:22:32;101056.94;;;12.49;100.00
60437;BME280;46289;51.992;4.498;2022-10-16T02:25:04;101059.59;;;12.48;100.00
60437;BME280;46289;51.992;4.498;2022-10-16T02:27:40;101056.09;;;12.47;100.00
60437;BME280;46289;51.992;4.498;2022-10-16T02:30:19;101052.56;;;12.48;100.00
60437;BME280;46289;51.992;4.498;2022-10-16T02:32:52;101049.91;;;12.48;100.00
60437;BME280;46289;51.992;4.498;2022-10-16T02:35:23;101055.19;;;12.50;100.00
60437;BME280;46289;51.992;4.498;2022-10-16T02:37:54;101058.72;;;12.47;100.00
60437;BME280;46289;51.992;4.498;2022-10-16T02:40:25;101061.38;;;12.53;100.00
60437;BME280;46289;51.992;4.498;2022-10-16T02:42:56;101056.09;;;12.52;100.00
60437;BME280;46289;51.992;4.498;2022-10-16T02:45:29;101057.84;;;12.51;100.00
60437;BME280;46289;51.992;4.498;2022-10-16T02:47:58;101052.56;;;12.50;100.00
60437;BME280;46289;51.992;4.498;2022-10-16T02:50:28;101051.69;;;12.49;100.00
60437;BME280;46289;51.992;4.498;2022-10-16T02:52:58;101046.41;;;12.49;100.00
60437;BME280;46289;51.992;4.498;2022-10-16T02:55:28;101055.16;;;12.42;100.00
60437;BME280;46289;51.992;4.498;2022-10-16T02:57:58;101049.03;;;12.44;100.00
60437;BME280;46289;51.992;4.498;2022-10-16T03:00:31;101046.34;;;12.37;100.00
60437;BME280;46289;51.992;4.498;2022-10-16T03:03:01;101051.63;;;12.40;100.00
60437;BME280;46289;51.992;4.498;2022-10-16T03:05:31;101058.56;;;12.32;100.00
60437;BME280;46289;51.992;4.498;2022-10-16T03:08:01;101060.38;;;12.39;100.00
60437;BME280;46289;51.992;4.498;2022-10-16T03:10:31;101066.59;;;12.50;100.00
60437;BME280;46289;51.992;4.498;2022-10-16T03:13:01;101067.47;;;12.49;100.00
60437;BME280;46289;51.992;4.498;2022-10-16T03:15:34;101067.47;;;12.44;100.00
60437;BME280;46289;51.992;4.498;2022-10-16T03:18:03;101069.22;;;12.47;100.00
60437;BME280;46289;51.992;4.498;2022-10-16T03:20:33;101075.38;;;12.48;100.00
60437;BME280;46289;51.992;4.498;2022-10-16T03:23:03;101078.84;;;12.43;100.00
60437;BME280;46289;51.992;4.498;2022-10-16T03:25:34;101076.19;;;12.40;100.00
60437;BME280;46289;51.992;4.498;2022-10-16T03:28:04;101093.75;;;12.43;100.00
60437;BME280;46289;51.992;4.498;2022-10-16T03:30:36;101090.25;;;12.46;100.00
60437;BME280;46289;51.992;4.498;2022-10-16T03:33:06;101087.59;;;12.42;100.00
60437;BME280;46289;51.992;4.498;2022-10-16T03:35:35;101090.22;;;12.41;100.00
60437;BME280;46289;51.992;4.498;2022-10-16T03:38:05;101092.84;;;12.41;100.00
60437;BME280;46289;51.992;4.498;2022-10-16T03:40:35;101092.81;;;12.38;100.00
60437;BME280;46289;51.992;4.498;2022-10-16T03:43:04;101085.78;;;12.35;100.00
60437;BME280;46289;51.992;4.498;2022-10-16T03:45:36;101085.78;;;12.37;100.00
60437;BME280;46289;51.992;4.498;2022-10-16T03:48:06;101091.94;;;12.36;100.00
60437;BME280;46289;51.992;4.498;2022-10-16T03:50:36;101097.16;;;12.33;100.00
60437;BME280;46289;51.992;4.498;2022-10-16T03:53:05;101100.66;;;12.32;100.00
60437;BME280;46289;51.992;4.498;2022-10-16T03:55:35;101100.66;;;12.32;100.00
60437;BME280;46289;51.992;4.498;2022-10-16T03:58:05;101102.38;;;12.30;100.00
60437;BME280;46289;51.992;4.498;2022-10-16T04:00:40;101102.34;;;12.27;100.00
60437;BME280;46289;51.992;4.498;2022-10-16T04:03:10;101121.66;;;12.29;100.00
60437;BME280;46289;51.992;4.498;2022-10-16T04:05:40;101113.78;;;12.30;100.00
60437;BME280;46289;51.992;4.498;2022-10-16T04:08:09;101113.81;;;12.33;100.00
60437;BME280;46289;51.992;4.498;2022-10-16T04:10:39;101113.81;;;12.32;100.00
60437;BME280;46289;51.992;4.498;2022-10-16T04:13:09;101123.44;;;12.33;100.00
60437;BME280;46289;51.992;4.498;2022-10-16T04:15:41;101127.81;;;12.31;100.00
60437;BME280;46289;51.992;4.498;2022-10-16T04:18:11;101116.41;;;12.29;100.00
60437;BME280;46289;51.992;4.498;2022-10-16T04:20:41;101123.44;;;12.33;100.00
60437;BME280;46289;51.992;4.498;2022-10-16T04:23:10;101131.31;;;12.30;100.00
60437;BME280;46289;51.992;4.498;2022-10-16T04:25:40;101134.78;;;12.27;100.00
60437;BME280;46289;51.992;4.498;2022-10-16T04:28:10;101141.84;;;12.31;100.00
60437;BME280;46289;51.992;4.498;2022-10-16T04:30:42;101145.34;;;12.30;100.00
60437;BME280;46289;51.992;4.498;2022-10-16T04:33:11;101151.44;;;12.28;100.00
60437;BME280;46289;51.992;4.498;2022-10-16T04:35:41;101148.78;;;12.25;100.00
60437;BME280;46289;51.992;4.498;2022-10-16T04:38:10;101146.19;;;12.28;100.00
60437;BME280;46289;51.992;4.498;2022-10-16T04:40:41;101153.16;;;12.24;100.00
60437;BME280;46289;51.992;4.498;2022-10-16T04:43:11;101165.44;;;12.24;100.00
60437;BME280;46289;51.992;4.498;2022-10-16T04:45:43;101161.97;;;12.28;100.00
60437;BME280;46289;51.992;4.498;2022-10-16T04:48:13;101178.69;;;12.33;100.00
60437;BME280;46289;51.992;4.498;2022-10-16T04:50:42;101167.25;;;12.29;100.00
60437;BME280;46289;51.992;4.498;2022-10-16T04:53:18;101179.53;;;12.30;100.00
60437;BME280;46289;51.992;4.498;2022-10-16T04:55:48;101182.22;;;12.35;100.00
60437;BME280;46289;51.992;4.498;2022-10-16T04:58:17;101193.63;;;12.35;100.00
60437;BME280;46289;51.992;4.498;2022-10-16T05:00:50;101196.25;;;12.37;100.00
60437;BME280;46289;51.992;4.498;2022-10-16T05:03:19;101195.34;;;12.33;100.00
60437;BME280;46289;51.992;4.498;2022-10-16T05:05:49;101198.91;;;12.37;100.00
60437;BME280;46289;51.992;4.498;2022-10-16T05:08:19;101196.31;;;12.40;100.00
60437;BME280;46289;51.992;4.498;2022-10-16T05:10:48;101199.81;;;12.40;100.00
60437;BME280;46289;51.992;4.498;2022-10-16T05:13:18;101193.66;;;12.38;100.00
60437;BME280;46289;51.992;4.498;2022-10-16T05:15:50;101211.19;;;12.38;100.00
60437;BME280;46289;51.992;4.498;2022-10-16T05:18:20;101216.44;;;12.36;100.00
60437;BME280;46289;51.992;4.498;2022-10-16T05:20:49;101219.97;;;12.38;100.00
60437;BME280;46289;51.992;4.498;2022-10-16T05:23:19;101215.56;;;12.37;100.00
60437;BME280;46289;51.992;4.498;2022-10-16T05:25:53;101226.97;;;12.38;100.00
60437;BME280;46289;51.992;4.498;2022-10-16T05:28:25;101226.06;;;12.36;100.00
60437;BME280;46289;51.992;4.498;2022-10-16T05:30:58;101226.94;;;12.35;100.00
60437;BME280;46289;51.992;4.498;2022-10-16T05:33:28;101226.94;;;12.35;100.00
60437;BME280;46289;51.992;4.498;2022-10-16T05:36:01;101226.03;;;12.34;100.00
60437;BME280;46289;51.992;4.498;2022-10-16T05:38:31;101236.53;;;12.33;100.00
60437;BME280;46289;51.992;4.498;2022-10-16T05:41:01;101233.00;;;12.29;100.00
60437;BME280;46289;51.992;4.498;2022-10-16T05:43:32;101229.47;;;12.29;100.00
60437;BME280;46289;51.992;4.498;2022-10-16T05:46:05;101238.25;;;12.29;100.00
60437;BME280;46289;51.992;4.498;2022-10-16T05:48:35;101236.53;;;12.33;100.00
60437;BME280;46289;51.992;4.498;2022-10-16T05:51:06;101242.72;;;12.35;100.00
60437;BME280;46289;51.992;4.498;2022-10-16T05:53:37;101249.72;;;12.34;100.00
60437;BME280;46289;51.992;4.498;2022-10-16T05:56:27;101245.28;;;12.30;100.00
60437;BME280;46289;51.992;4.498;2022-10-16T05:58:58;101245.31;;;12.32;100.00
60437;BME280;46289;51.992;4.498;2022-10-16T06:01:31;101242.66;;;12.32;100.00
60437;BME280;46289;51.992;4.498;2022-10-16T06:04:02;101250.56;;;12.32;100.00
60437;BME280;46289;51.992;4.498;2022-10-16T06:06:35;101256.75;;;12.37;100.00
60437;BME280;46289;51.992;4.498;2022-10-16T06:09:05;101259.38;;;12.35;100.00
60437;BME280;46289;51.992;4.498;2022-10-16T06:11:36;101256.75;;;12.37;100.00
60437;BME280;46289;51.992;4.498;2022-10-16T06:14:06;101255.03;;;12.39;100.00
60437;BME280;46289;51.992;4.498;2022-10-16T06:16:38;101259.44;;;12.41;100.00
60437;BME280;46289;51.992;4.498;2022-10-16T06:19:07;101265.59;;;12.42;100.00
60437;BME280;46289;51.992;4.498;2022-10-16T06:21:37;101270.84;;;12.42;100.00
60437;BME280;46289;51.992;4.498;2022-10-16T06:24:08;101263.78;;;12.36;100.00
60437;BME280;46289;51.992;4.498;2022-10-16T06:26:37;101272.56;;;12.38;100.00
60437;BME280;46289;51.992;4.498;2022-10-16T06:29:08;101268.09;;;12.33;100.00
60437;BME280;46289;51.992;4.498;2022-10-16T06:31:40;101265.47;;;12.33;100.00
60437;BME280;46289;51.992;4.498;2022-10-16T06:34:10;101271.63;;;12.33;100.00
60437;BME280;46289;51.992;4.498;2022-10-16T06:36:40;101280.41;;;12.34;100.00
60437;BME280;46289;51.992;4.498;2022-10-16T06:39:10;101276.88;;;12.33;100.00
60437;BME280;46289;51.992;4.498;2022-10-16T06:41:39;101281.34;;;12.39;100.00
60437;BME280;46289;51.992;4.498;2022-10-16T06:44:09;101280.53;;;12.44;100.00
60437;BME280;46289;51.992;4.498;2022-10-16T06:46:44;101296.34;;;12.46;100.00
60437;BME280;46289;51.992;4.498;2022-10-16T06:49:14;101293.78;;;12.55;100.00
60437;BME280;46289;51.992;4.498;2022-10-16T06:51:49;101300.81;;;12.56;100.00
60437;BME280;46289;51.992;4.498;2022-10-16T06:54:18;101305.13;;;12.50;100.00
60437;BME280;46289;51.992;4.498;2022-10-16T06:56:48;101314.78;;;12.51;100.00
60437;BME280;46289;51.992;4.498;2022-10-16T06:59:18;101315.63;;;12.47;100.00
60437;BME280;46289;51.992;4.498;2022-10-16T07:01:50;101321.78;;;12.47;100.00
60437;BME280;46289;51.992;4.498;2022-10-16T07:04:19;101333.16;;;12.46;100.00
60437;BME280;46289;51.992;4.498;2022-10-16T07:06:49;101333.19;;;12.48;100.00
60437;BME280;46289;51.992;4.498;2022-10-16T07:09:19;101346.28;;;12.43;100.00
60437;BME280;46289;51.992;4.498;2022-10-16T07:11:48;101350.69;;;12.44;100.00
60437;BME280;46289;51.992;4.498;2022-10-16T07:14:20;101354.22;;;12.46;100.00
60437;BME280;46289;51.992;4.498;2022-10-16T07:16:52;101358.59;;;12.47;100.00
60437;BME280;46289;51.992;4.498;2022-10-16T07:19:22;101365.59;;;12.45;100.00
60437;BME280;46289;51.992;4.498;2022-10-16T07:21:56;101369.13;;;12.50;100.00
60437;BME280;46289;51.992;4.498;2022-10-16T07:24:26;101374.44;;;12.53;100.00
60437;BME280;46289;51.992;4.498;2022-10-16T07:26:56;101376.28;;;12.59;100.00
60437;BME280;46289;51.992;4.498;2022-10-16T07:29:26;101382.44;;;12.61;100.00
60437;BME280;46289;51.992;4.498;2022-10-16T07:31:59;101383.28;;;12.58;100.00
60437;BME280;46289;51.992;4.498;2022-10-16T07:34:28;101395.66;;;12.64;100.00
60437;BME280;46289;51.992;4.498;2022-10-16T07:36:58;101401.00;;;12.71;100.00
60437;BME280;46289;51.992;4.498;2022-10-16T07:39:28;101396.63;;;12.72;100.00
60437;BME280;46289;51.992;4.498;2022-10-16T07:41:58;101402.81;;;12.74;100.00
60437;BME280;46289;51.992;4.498;2022-10-16T07:44:28;101411.63;;;12.77;100.00
60437;BME280;46289;51.992;4.498;2022-10-16T07:47:00;101414.28;;;12.79;100.00
60437;BME280;46289;51.992;4.498;2022-10-16T07:49:31;101427.50;;;12.84;100.00
60437;BME280;46289;51.992;4.498;2022-10-16T07:52:01;101415.19;;;12.83;100.00
60437;BME280;46289;51.992;4.498;2022-10-16T07:54:31;101423.19;;;12.89;100.00
60437;BME280;46289;51.992;4.498;2022-10-16T07:57:01;101426.75;;;12.94;100.00
60437;BME280;46289;51.992;4.498;2022-10-16T07:59:31;101434.66;;;12.94;100.00
60437;BME280;46289;51.992;4.498;2022-10-16T08:02:04;101440.06;;;13.04;100.00
60437;BME280;46289;51.992;4.498;2022-10-16T08:04:33;101441.03;;;13.11;100.00
60437;BME280;46289;51.992;4.498;2022-10-16T08:07:03;101438.53;;;13.20;100.00
60437;BME280;46289;51.992;4.498;2022-10-16T08:09:32;101446.53;;;13.28;100.00
60437;BME280;46289;51.992;4.498;2022-10-16T08:12:02;101453.63;;;13.35;100.00
60437;BME280;46289;51.992;4.498;2022-10-16T08:14:32;101451.94;;;13.40;100.00
60437;BME280;46289;51.992;4.498;2022-10-16T08:17:04;101459.09;;;13.50;100.00
60437;BME280;46289;51.992;4.498;2022-10-16T08:19:34;101468.84;;;13.63;100.00
60437;BME280;46289;51.992;4.498;2022-10-16T08:22:03;101472.44;;;13.70;100.00
60437;BME280;46289;51.992;4.498;2022-10-16T08:24:33;101473.41;;;13.78;100.00
60437;BME280;46289;51.992;4.498;2022-10-16T08:27:03;101470.84;;;13.84;100.00
60437;BME280;46289;51.992;4.498;2022-10-16T08:29:33;101478.00;;;13.97;100.00
60437;BME280;46289;51.992;4.498;2022-10-16T08:32:06;101481.56;;;14.04;100.00
60437;BME280;46289;51.992;4.498;2022-10-16T08:34:35;101483.50;;;14.22;100.00
60437;BME280;46289;51.992;4.498;2022-10-16T08:37:05;101491.44;;;14.26;100.00
60437;BME280;46289;51.992;4.498;2022-10-16T08:39:37;101503.78;;;14.27;100.00
60437;BME280;46289;51.992;4.498;2022-10-16T08:42:20;101511.75;;;14.36;100.00
60437;BME280;46289;51.992;4.498;2022-10-16T08:45:14;101511.91;;;14.50;100.00
60437;BME280;46289;51.992;4.498;2022-10-16T08:47:58;101503.13;;;14.50;100.00
60437;BME280;46289;51.992;4.498;2022-10-16T08:50:31;101516.41;;;14.65;100.00
60437;BME280;46289;51.992;4.498;2022-10-16T08:53:04;101518.13;;;14.61;100.00
60437;BME280;46289;51.992;4.498;2022-10-16T08:55:41;101513.84;;;14.76;100.00
60437;BME280;46289;51.992;4.498;2022-10-16T08:58:13;101519.16;;;14.82;100.00
60437;BME280;46289;51.992;4.498;2022-10-16T09:00:46;101523.66;;;14.99;100.00
60437;BME280;46289;51.992;4.498;2022-10-16T09:03:38;101528.97;;;15.04;100.00
60437;BME280;46289;51.992;4.498;2022-10-16T09:06:31;101536.97;;;15.13;100.00
60437;BME280;46289;51.992;4.498;2022-10-16T09:09:14;101535.19;;;15.12;100.00
60437;BME280;46289;51.992;4.498;2022-10-16T09:11:55;101536.19;;;15.32;100.00
60437;BME280;46289;51.992;4.498;2022-10-16T09:14:38;101542.38;;;15.34;100.00
60437;BME280;46289;51.992;4.498;2022-10-16T09:17:22;101537.16;;;15.53;100.00
60437;BME280;46289;51.992;4.498;2022-10-16T09:20:09;101537.16;;;15.56;100.00
60437;BME280;46289;51.992;4.498;2022-10-16T09:22:42;101546.00;;;15.61;100.00
60437;BME280;46289;51.992;4.498;2022-10-16T09:25:14;101550.41;;;15.62;100.00
60437;BME280;46289;51.992;4.498;2022-10-16T09:27:47;101546.91;;;15.67;100.00
60437;BME280;46289;51.992;4.498;2022-10-16T09:30:19;101553.97;;;15.72;100.00
60437;BME280;46289;51.992;4.498;2022-10-16T09:32:51;101558.41;;;15.76;100.00
60437;BME280;46289;51.992;4.498;2022-10-16T09:35:31;101551.38;;;15.85;100.00
60437;BME280;46289;51.992;4.498;2022-10-16T09:38:01;101554.06;;;16.03;100.00
60437;BME280;46289;51.992;4.498;2022-10-16T09:40:33;101552.28;;;15.92;100.00
60437;BME280;46289;51.992;4.498;2022-10-16T09:43:16;101551.41;;;15.91;100.00
60437;BME280;46289;51.992;4.498;2022-10-16T09:45:55;101566.34;;;15.83;100.00
60437;BME280;46289;51.992;4.498;2022-10-16T09:48:27;101558.38;;;15.69;100.00
60437;BME280;46289;51.992;4.498;2022-10-16T09:51:04;101571.44;;;15.34;100.00
60437;BME280;46289;51.992;4.498;2022-10-16T09:53:40;101561.88;;;15.64;100.00
60437;BME280;46289;51.992;4.498;2022-10-16T09:56:11;101568.00;;;15.54;100.00
60437;BME280;46289;51.992;4.498;2022-10-16T09:58:43;101578.50;;;15.40;100.00
60437;BME280;46289;51.992;4.498;2022-10-16T10:01:14;101574.94;;;15.33;100.00
60437;BME280;46289;51.992;4.498;2022-10-16T10:03:44;101576.75;;;15.41;100.00
60437;BME280;46289;51.992;4.498;2022-10-16T10:06:23;101584.66;;;15.37;100.00
60437;BME280;46289;51.992;4.498;2022-10-16T10:08:58;101571.38;;;15.25;100.00
60437;BME280;46289;51.992;4.498;2022-10-16T10:11:48;101573.09;;;15.16;100.00
60437;BME280;46289;51.992;4.498;2022-10-16T10:14:30;101580.06;;;15.06;100.00
60437;BME280;46289;51.992;4.498;2022-10-16T10:17:13;101582.81;;;15.21;100.00
60437;BME280;46289;51.992;4.498;2022-10-16T10:19:47;101590.81;;;15.36;100.00
60437;BME280;46289;51.992;4.498;2022-10-16T10:22:29;101593.38;;;15.21;100.00
60437;BME280;46289;51.992;4.498;2022-10-16T10:25:19;101592.47;;;15.19;100.00
60437;BME280;46289;51.992;4.498;2022-10-16T10:30:48;101591.66;;;15.26;100.00
60437;BME280;46289;51.992;4.498;2022-10-16T10:33:29;101596.25;;;15.58;100.00
60437;BME280;46289;51.992;4.498;2022-10-16T10:36:09;101598.06;;;15.76;100.00
60437;BME280;46289;51.992;4.498;2022-10-16T10:38:48;101609.47;;;15.64;100.00
60437;BME280;46289;51.992;4.498;2022-10-16T10:41:30;101614.91;;;15.99;100.00
60437;BME280;46289;51.992;4.498;2022-10-16T10:44:11;101611.47;;;16.26;100.00
60437;BME280;46289;51.992;4.498;2022-10-16T10:46:50;101607.94;;;16.28;100.00
60437;BME280;46289;51.992;4.498;2022-10-16T10:49:30;101610.63;;;16.45;100.00
60437;BME280;46289;51.992;4.498;2022-10-16T10:52:08;101622.09;;;16.44;100.00
60437;BME280;46289;51.992;4.498;2022-10-16T10:54:49;101625.53;;;16.11;100.00
60437;BME280;46289;51.992;4.498;2022-10-16T10:57:28;101625.50;;;15.97;100.00
60437;BME280;46289;51.992;4.498;2022-10-16T11:00:18;101621.06;;;15.92;100.00
60437;BME280;46289;51.992;4.498;2022-10-16T11:02:56;101625.56;;;16.19;100.00
60437;BME280;46289;51.992;4.498;2022-10-16T11:05:41;101624.72;;;16.38;100.00
60437;BME280;46289;51.992;4.498;2022-10-16T11:08:16;101636.22;;;16.60;100.00
60437;BME280;46289;51.992;4.498;2022-10-16T11:10:54;101638.00;;;16.65;100.00
60437;BME280;46289;51.992;4.498;2022-10-16T11:13:31;101631.84;;;16.88;100.00
60437;BME280;46289;51.992;4.498;2022-10-16T11:16:10;101638.03;;;16.93;100.00
60437;BME280;46289;51.992;4.498;2022-10-16T11:18:50;101643.31;;;16.99;100.00
60437;BME280;46289;51.992;4.498;2022-10-16T11:21:22;101652.16;;;17.07;100.00
60437;BME280;46289;51.992;4.498;2022-10-16T11:24:00;101658.34;;;17.17;100.00
60437;BME280;46289;51.992;4.498;2022-10-16T11:26:35;101657.41;;;17.42;100.00
60437;BME280;46289;51.992;4.498;2022-10-16T11:29:13;101660.91;;;17.62;100.00
60437;BME280;46289;51.992;4.498;2022-10-16T11:31:49;101648.47;;;17.78;100.00
60437;BME280;46289;51.992;4.498;2022-10-16T11:34:25;101649.38;;;17.79;100.00
60437;BME280;46289;51.992;4.498;2022-10-16T11:37:09;101651.19;;;17.68;100.00
60437;BME280;46289;51.992;4.498;2022-10-16T11:39:42;101651.19;;;17.64;100.00
60437;BME280;46289;51.992;4.498;2022-10-16T11:42:19;101652.97;;;17.59;100.00
60437;BME280;46289;51.992;4.498;2022-10-16T11:44:55;101662.66;;;17.73;100.00
60437;BME280;46289;51.992;4.498;2022-10-16T11:47:35;101652.88;;;17.84;100.00
60437;BME280;46289;51.992;4.498;2022-10-16T11:50:28;101659.00;;;18.03;100.00
60437;BME280;46289;51.992;4.498;2022-10-16T11:53:03;101664.31;;;17.98;100.00
60437;BME280;46289;51.992;4.498;2022-10-16T11:55:36;101671.47;;;17.84;100.00
60437;BME280;46289;51.992;4.498;2022-10-16T11:58:22;101668.84;;;17.73;100.00
60437;BME280;46289;51.992;4.498;2022-10-16T12:01:00;101671.38;;;18.04;100.00
60437;BME280;46289;51.992;4.498;2022-10-16T12:03:35;101681.09;;;18.09;100.00
60437;BME280;46289;51.992;4.498;2022-10-16T12:06:22;101683.78;;;17.95;100.00
60437;BME280;46289;51.992;4.498;2022-10-16T12:08:55;101669.50;;;18.25;100.00
60437;BME280;46289;51.992;4.498;2022-10-16T12:11:36;101678.38;;;18.24;100.00
60437;BME280;46289;51.992;4.498;2022-10-16T12:14:20;101678.44;;;18.12;100.00
60437;BME280;46289;51.992;4.498;2022-10-16T12:16:55;101693.53;;;17.96;100.00
60437;BME280;46289;51.992;4.498;2022-10-16T12:19:27;101685.59;;;17.87;100.00
60437;BME280;46289;51.992;4.498;2022-10-16T12:21:58;101690.88;;;17.93;100.00
60437;BME280;46289;51.992;4.498;2022-10-16T12:24:35;101694.41;;;17.94;100.00
60437;BME280;46289;51.992;4.498;2022-10-16T12:27:24;101692.66;;;17.91;100.00
60437;BME280;46289;51.992;4.498;2022-10-16T12:29:58;101692.75;;;17.64;100.00
60437;BME280;46289;51.992;4.498;2022-10-16T12:32:32;101697.09;;;17.83;100.00
60437;BME280;46289;51.992;4.498;2022-10-16T12:35:20;101692.66;;;17.90;100.00
60437;BME280;46289;51.992;4.498;2022-10-16T12:37:51;101693.53;;;17.98;100.00
60437;BME280;46289;51.992;4.498;2022-10-16T12:40:27;101695.28;;;18.01;100.00
60437;BME280;46289;51.992;4.498;2022-10-16T12:42:58;101692.66;;;17.94;100.00
60437;BME280;46289;51.992;4.498;2022-10-16T12:45:32;101691.72;;;18.09;100.00
60437;BME280;46289;51.992;4.498;2022-10-16T12:48:18;101691.78;;;17.91;100.00
60437;BME280;46289;51.992;4.498;2022-10-16T12:51:09;101697.97;;;17.87;100.00
60437;BME280;46289;51.992;4.498;2022-10-16T12:53:39;101698.84;;;17.89;100.00
60437;BME280;46289;51.992;4.498;2022-10-16T12:56:14;101702.38;;;17.92;100.00
60437;BME280;46289;51.992;4.498;2022-10-16T12:59:06;101690.78;;;18.21;100.00
60437;BME280;46289;51.992;4.498;2022-10-16T13:01:56;101692.56;;;18.16;100.00
60437;BME280;46289;51.992;4.498;2022-10-16T13:04:43;101689.06;;;18.05;100.00
60437;BME280;46289;51.992;4.498;2022-10-16T13:07:28;101704.19;;;17.86;100.00
60437;BME280;46289;51.992;4.498;2022-10-16T13:10:08;101706.84;;;17.86;100.00
60437;BME280;46289;51.992;4.498;2022-10-16T13:12:52;101715.69;;;17.82;100.00
60437;BME280;46289;51.992;4.498;2022-10-16T13:15:52;101705.13;;;17.56;100.00
60437;BME280;46289;51.992;4.498;2022-10-16T13:18:33;101720.13;;;17.80;100.00